North Chester, Massachusetts
Current Conditions -  °F | °C
As of 2:53 PM on Thursday 23 Oct 2014 (Local Time) from KBAF Reporting Station
Overcast Overcast  
Wind Chill: 12°   Ceiling: 1600
Heat Index: 12°   Visibility: 10mi
Dew Point:   Wind: 20mph
Humidity: 80%   Direction: 10°N
Pressure: 29.66"   Gusts: 28mph
Location:  42.3047°N, 72.879°W
Report Text: KBAF 231853Z 01017G24KT 10SM OVC016 12/08 A2966 RMK AO2 SLP047 T01170083
Loading
Personal Weather Stations






























Interactive Weather Map
Tropical Storm Tracking
New forecast layout! Learn more

10-Day Weather Forecast

Advertisements
Track Severe Weather on mobile